This is the latest recevied weather packets stored in our database for station/object PY2VE-13. If no packets are shown the sender has not sent any weather packets the latest 10 day(s).
| Time | Temp. | Humidity | Pressure | Rain* | Wind** | Luminosity | Snow |
|---|---|---|---|---|---|---|---|
| 1777767526 | 23.89° C | 54% | 1024.6 hPa | - | - | - | - |
| 1777766626 | 23.89° C | 54% | 1024.8 hPa | - | - | - | - |
| 1777765726 | 23.89° C | 53% | 1025 hPa | - | - | - | - |
| 1777764826 | 25° C | 50% | 1024.4 hPa | - | - | - | - |
| 1777763926 | 25.56° C | 48% | 1024.2 hPa | - | - | - | - |
| 1777763026 | 27.22° C | 44% | 1023.5 hPa | - | - | - | - |
| 1777762126 | 27.22° C | 45% | 1023.6 hPa | - | - | - | - |
| 1777761226 | 26.67° C | 46% | 1023.7 hPa | - | - | - | - |
| 1777760326 | 26.67° C | 46% | 1023.7 hPa | - | - | - | - |
| 1777759426 | 26.67° C | 47% | 1023.6 hPa | - | - | - | - |
| 1777758526 | 25.56° C | 50% | 1023.9 hPa | - | - | - | - |
| 1777757626 | 25.56° C | 50% | 1023.7 hPa | - | - | - | - |
| 1777756726 | 24.44° C | 52% | 1023.6 hPa | - | - | - | - |
| 1777755826 | 23.89° C | 55% | 1023.7 hPa | - | - | - | - |
| 1777754926 | 23.89° C | 57% | 1023.6 hPa | - | - | - | - |
| 1777754026 | 24.44° C | 55% | 1023 hPa | - | - | - | - |
| 1777753126 | 28.33° C | 39% | 1021.2 hPa | - | - | - | - |
| 1777752226 | 28.33° C | 38% | 1021.1 hPa | - | - | - | - |
| 1777751326 | 28.89° C | 36% | 1020.9 hPa | - | - | - | - |
| 1777750426 | 28.89° C | 35% | 1020.7 hPa | - | - | - | - |
| 1777749535 | 29.44° C | 34% | 1020.5 hPa | - | - | - | - |
| 1777748626 | 39.44° C | 21% | 1018.1 hPa | - | - | - | - |
| 1777747726 | 38.89° C | 23% | 1018.1 hPa | - | - | - | - |
| 1777746826 | 29.44° C | 37% | 1020.4 hPa | - | - | - | - |
| 1777745926 | 30° C | 37% | 1020.3 hPa | - | - | - | - |
* Rain since midnight (hover to see other rain measurements)
** Current wind speed in m/s (hover to see current wind gust speed)